IGO6165 VISR-VOHS
Flight info
| Callsign | IGO6165 |
|---|---|
| Flight time | 2h 31m |
| Altitude | 39000 |
| Route | RILVU W21 PANLA W23 BIKUX W21 PKT J22 CHG J21 DPN/N0443F380 Q23 AKRIB/N0442F390 Z16 BULDI Q23 DULAR W19 BDR DCT SUSMA NAMSA8 |
| Aircraft | A20N/M-SDE2E3FGHIRWXY/LB1 |
Departure
| Time | 2026-04-28 09:04 |
|---|---|
| Airport | Sheikh ul Alam International Airport (VISR) |
Arrival
| Time | 2026-04-28 11:35 |
|---|---|
| Airport | Rajiv Gandhi International Airport (VOHS) |
| Time | Latitude | Longitude | Altitude | Speed | Heading |
|---|---|---|---|---|---|
| 2026-04-28 08:35 | 34.00093 | 74.76218 | 5408 ft | 0 kts | 13° |
| 2026-04-28 08:53 | 34.00090 | 74.76216 | 5408 ft | 0 kts | 352° |
| 2026-04-28 08:53 | 34.00076 | 74.76221 | 5408 ft | 1 kts | 346° |
| 2026-04-28 08:54 | 34.00061 | 74.76218 | 5408 ft | 2 kts | 17° |
| 2026-04-28 08:54 | 34.00046 | 74.76214 | 5409 ft | 2 kts | 12° |
| 2026-04-28 08:54 | 34.00030 | 74.76209 | 5409 ft | 2 kts | 13° |
| 2026-04-28 08:54 | 34.00017 | 74.76206 | 5410 ft | 0 kts | 13° |
| 2026-04-28 08:55 | 34.00001 | 74.76206 | 5410 ft | 2 kts | 332° |
| 2026-04-28 08:55 | 33.99989 | 74.76220 | 5410 ft | 2 kts | 294° |
| 2026-04-28 08:55 | 33.99987 | 74.76231 | 5410 ft | 1 kts | 270° |
| 2026-04-28 08:55 | 33.99987 | 74.76239 | 5410 ft | 0 kts | 269° |
| 2026-04-28 09:02 | 33.99987 | 74.76235 | 5410 ft | 2 kts | 269° |
| 2026-04-28 09:02 | 33.99979 | 74.76197 | 5411 ft | 6 kts | 238° |
| 2026-04-28 09:02 | 33.99935 | 74.76170 | 5414 ft | 8 kts | 197° |
| 2026-04-28 09:03 | 33.99872 | 74.76148 | 5418 ft | 10 kts | 196° |
| 2026-04-28 09:03 | 33.99794 | 74.76138 | 5422 ft | 12 kts | 162° |
| 2026-04-28 09:03 | 33.99688 | 74.76251 | 5420 ft | 37 kts | 137° |
| 2026-04-28 09:03 | 33.99365 | 74.76620 | 5424 ft | 96 kts | 137° |
| 2026-04-28 09:04 | 33.98721 | 74.77376 | 5443 ft | 157 kts | 136° |
| 2026-04-28 09:04 | 33.97814 | 74.78423 | 5615 ft | 193 kts | 138° |
| 2026-04-28 09:04 | 33.96793 | 74.79557 | 6149 ft | 208 kts | 139° |
| 2026-04-28 09:04 | 33.95659 | 74.80767 | 6863 ft | 220 kts | 140° |
| 2026-04-28 09:05 | 33.94433 | 74.82023 | 7391 ft | 243 kts | 145° |
| 2026-04-28 09:05 | 33.92804 | 74.83019 | 7997 ft | 263 kts | 165° |
| 2026-04-28 09:05 | 33.90889 | 74.83253 | 8660 ft | 280 kts | 186° |
| 2026-04-28 09:05 | 33.88817 | 74.82882 | 9480 ft | 292 kts | 192° |
| 2026-04-28 09:06 | 33.86827 | 74.82404 | 10434 ft | 288 kts | 190° |
| 2026-04-28 09:06 | 33.84615 | 74.82147 | 11173 ft | 294 kts | 180° |
| 2026-04-28 09:06 | 33.82425 | 74.82285 | 11847 ft | 301 kts | 176° |
| 2026-04-28 09:06 | 33.80208 | 74.82469 | 12585 ft | 306 kts | 176° |
| 2026-04-28 09:07 | 33.78050 | 74.82654 | 13374 ft | 307 kts | 175° |
| 2026-04-28 09:07 | 33.75705 | 74.82861 | 14427 ft | 302 kts | 175° |
| 2026-04-28 09:07 | 33.73524 | 74.83058 | 15411 ft | 297 kts | 175° |
| 2026-04-28 09:07 | 33.71389 | 74.83254 | 16317 ft | 294 kts | 175° |
| 2026-04-28 09:08 | 33.69195 | 74.83393 | 16906 ft | 304 kts | 176° |
| 2026-04-28 09:08 | 33.66969 | 74.83646 | 17243 ft | 322 kts | 172° |
| 2026-04-28 09:08 | 33.64709 | 74.84111 | 17663 ft | 335 kts | 169° |
| 2026-04-28 09:08 | 33.62356 | 74.84641 | 18306 ft | 340 kts | 169° |
| 2026-04-28 09:09 | 33.60009 | 74.85190 | 18973 ft | 344 kts | 169° |
| 2026-04-28 09:09 | 33.57638 | 74.85758 | 19623 ft | 348 kts | 169° |
| 2026-04-28 09:09 | 33.55162 | 74.86357 | 20272 ft | 352 kts | 169° |
| 2026-04-28 09:09 | 33.52750 | 74.86941 | 20879 ft | 356 kts | 169° |
| 2026-04-28 09:10 | 33.50306 | 74.87534 | 21515 ft | 359 kts | 169° |
| 2026-04-28 09:10 | 33.47733 | 74.88155 | 22124 ft | 363 kts | 169° |
| 2026-04-28 09:10 | 33.45101 | 74.88792 | 22758 ft | 366 kts | 169° |
| 2026-04-28 09:10 | 33.42592 | 74.89397 | 23341 ft | 369 kts | 169° |
| 2026-04-28 09:11 | 33.40032 | 74.90014 | 23908 ft | 373 kts | 170° |
| 2026-04-28 09:11 | 33.37482 | 74.90705 | 24491 ft | 377 kts | 165° |
| 2026-04-28 09:11 | 33.34903 | 74.91840 | 25086 ft | 382 kts | 156° |
| 2026-04-28 09:11 | 33.32535 | 74.93356 | 25649 ft | 386 kts | 150° |
| 2026-04-28 09:12 | 33.30247 | 74.95061 | 26185 ft | 389 kts | 149° |
| 2026-04-28 09:12 | 33.27939 | 74.96819 | 26698 ft | 392 kts | 148° |
| 2026-04-28 09:12 | 33.25641 | 74.98570 | 27217 ft | 395 kts | 148° |
| 2026-04-28 09:12 | 33.23316 | 75.00332 | 27732 ft | 398 kts | 149° |
| 2026-04-28 09:13 | 33.20974 | 75.02100 | 28198 ft | 400 kts | 149° |
| 2026-04-28 09:13 | 33.18576 | 75.03905 | 28679 ft | 402 kts | 149° |
| 2026-04-28 09:13 | 33.16076 | 75.05782 | 29150 ft | 405 kts | 149° |
| 2026-04-28 09:13 | 33.13689 | 75.07581 | 29570 ft | 407 kts | 149° |
| 2026-04-28 09:14 | 33.11258 | 75.09424 | 29952 ft | 411 kts | 149° |
| 2026-04-28 09:14 | 33.08570 | 75.11466 | 30392 ft | 413 kts | 149° |
| 2026-04-28 09:14 | 33.05998 | 75.13416 | 30788 ft | 415 kts | 149° |
| 2026-04-28 09:14 | 33.03513 | 75.15298 | 31138 ft | 418 kts | 149° |
| 2026-04-28 09:15 | 33.00671 | 75.17448 | 31522 ft | 420 kts | 149° |
| 2026-04-28 09:15 | 32.97963 | 75.19495 | 31886 ft | 422 kts | 149° |
| 2026-04-28 09:15 | 32.95366 | 75.21459 | 32229 ft | 424 kts | 149° |
| 2026-04-28 09:15 | 32.92843 | 75.23365 | 32543 ft | 426 kts | 150° |
| 2026-04-28 09:16 | 32.90316 | 75.25270 | 32815 ft | 428 kts | 150° |
| 2026-04-28 09:16 | 32.87796 | 75.27165 | 33148 ft | 429 kts | 150° |
| 2026-04-28 09:16 | 32.85241 | 75.29082 | 33551 ft | 428 kts | 150° |
| 2026-04-28 09:16 | 32.82733 | 75.30962 | 33884 ft | 427 kts | 151° |
| 2026-04-28 09:17 | 32.79962 | 75.33038 | 34183 ft | 428 kts | 150° |
| 2026-04-28 09:17 | 32.77238 | 75.35084 | 34423 ft | 431 kts | 151° |
| 2026-04-28 09:17 | 32.74656 | 75.37020 | 34661 ft | 432 kts | 151° |
| 2026-04-28 09:17 | 32.72086 | 75.38951 | 34923 ft | 433 kts | 151° |
| 2026-04-28 09:18 | 32.69531 | 75.40868 | 35194 ft | 434 kts | 151° |
| 2026-04-28 09:18 | 32.66964 | 75.42795 | 35454 ft | 434 kts | 151° |
| 2026-04-28 09:18 | 32.64417 | 75.44704 | 35704 ft | 435 kts | 151° |
| 2026-04-28 09:18 | 32.61713 | 75.46728 | 35942 ft | 436 kts | 151° |
| 2026-04-28 09:19 | 32.59002 | 75.48744 | 36174 ft | 436 kts | 152° |
| 2026-04-28 09:19 | 32.56326 | 75.50542 | 36374 ft | 436 kts | 156° |
| 2026-04-28 09:19 | 32.53585 | 75.52152 | 36594 ft | 436 kts | 158° |
| 2026-04-28 09:19 | 32.50771 | 75.53745 | 36806 ft | 436 kts | 158° |
| 2026-04-28 09:20 | 32.47787 | 75.55430 | 37028 ft | 437 kts | 158° |
| 2026-04-28 09:20 | 32.44820 | 75.57107 | 37236 ft | 438 kts | 158° |
| 2026-04-28 09:20 | 32.42081 | 75.58655 | 37413 ft | 439 kts | 158° |
| 2026-04-28 09:20 | 32.39025 | 75.60384 | 37616 ft | 441 kts | 158° |
| 2026-04-28 09:21 | 32.36111 | 75.62031 | 37785 ft | 442 kts | 159° |
| 2026-04-28 09:21 | 32.33207 | 75.63672 | 37951 ft | 443 kts | 159° |
| 2026-04-28 09:21 | 32.30427 | 75.65241 | 38089 ft | 444 kts | 159° |
| 2026-04-28 09:21 | 32.27599 | 75.66850 | 38240 ft | 446 kts | 159° |
| 2026-04-28 09:22 | 32.24785 | 75.68453 | 38396 ft | 446 kts | 159° |
| 2026-04-28 09:22 | 32.21847 | 75.70119 | 38540 ft | 448 kts | 159° |
| 2026-04-28 09:22 | 32.19056 | 75.71697 | 38648 ft | 450 kts | 159° |
| 2026-04-28 09:23 | 32.13261 | 75.74963 | 38744 ft | 452 kts | 159° |
| 2026-04-28 09:23 | 32.07527 | 75.78185 | 38741 ft | 452 kts | 159° |
| 2026-04-28 09:24 | 32.01151 | 75.81759 | 38730 ft | 452 kts | 158° |
| 2026-04-28 09:24 | 31.95133 | 75.85132 | 38703 ft | 452 kts | 159° |
| 2026-04-28 09:25 | 31.89024 | 75.88802 | 38720 ft | 455 kts | 153° |
| 2026-04-28 09:25 | 31.83464 | 75.92852 | 38713 ft | 456 kts | 152° |
| 2026-04-28 09:26 | 31.77525 | 75.97232 | 38743 ft | 456 kts | 152° |
| 2026-04-28 09:26 | 31.71798 | 76.01450 | 38743 ft | 457 kts | 152° |
| 2026-04-28 09:27 | 31.63473 | 76.07568 | 38748 ft | 458 kts | 152° |
| 2026-04-28 09:27 | 31.57678 | 76.11819 | 38734 ft | 457 kts | 152° |
| 2026-04-28 09:28 | 31.52041 | 76.15946 | 38711 ft | 457 kts | 152° |
| 2026-04-28 09:28 | 31.46305 | 76.20140 | 38761 ft | 458 kts | 152° |
| 2026-04-28 09:29 | 31.40850 | 76.24123 | 38737 ft | 458 kts | 152° |
| 2026-04-28 09:29 | 31.35358 | 76.28127 | 38772 ft | 457 kts | 151° |
| 2026-04-28 09:30 | 31.29747 | 76.32214 | 38783 ft | 458 kts | 152° |
| 2026-04-28 09:30 | 31.23970 | 76.36414 | 38782 ft | 458 kts | 152° |
| 2026-04-28 09:31 | 31.18329 | 76.40509 | 38789 ft | 457 kts | 151° |
| 2026-04-28 09:31 | 31.12712 | 76.44581 | 38774 ft | 458 kts | 151° |
| 2026-04-28 09:32 | 31.07158 | 76.48605 | 38765 ft | 458 kts | 152° |
| 2026-04-28 09:32 | 31.01412 | 76.52758 | 38753 ft | 459 kts | 151° |
| 2026-04-28 09:33 | 30.95698 | 76.56884 | 38773 ft | 459 kts | 151° |
| 2026-04-28 09:33 | 30.90207 | 76.60846 | 38754 ft | 460 kts | 151° |
| 2026-04-28 09:34 | 30.84532 | 76.64919 | 38762 ft | 460 kts | 151° |
| 2026-04-28 09:34 | 30.79074 | 76.68862 | 38760 ft | 460 kts | 152° |
| 2026-04-28 09:35 | 30.73526 | 76.72701 | 38749 ft | 458 kts | 157° |
| 2026-04-28 09:35 | 30.67695 | 76.75406 | 38741 ft | 451 kts | 168° |
| 2026-04-28 09:36 | 30.61164 | 76.76847 | 38761 ft | 445 kts | 179° |
| 2026-04-28 09:36 | 30.54796 | 76.77114 | 38746 ft | 444 kts | 183° |
| 2026-04-28 09:37 | 30.48169 | 76.77270 | 38751 ft | 444 kts | 183° |
| 2026-04-28 09:37 | 30.41857 | 76.77434 | 38739 ft | 445 kts | 183° |
| 2026-04-28 09:38 | 30.35582 | 76.77612 | 38728 ft | 445 kts | 183° |
| 2026-04-28 09:38 | 30.29295 | 76.77789 | 38720 ft | 445 kts | 183° |
| 2026-04-28 09:39 | 30.22916 | 76.77969 | 38708 ft | 445 kts | 183° |
| 2026-04-28 09:39 | 30.16597 | 76.78151 | 38704 ft | 446 kts | 183° |
| 2026-04-28 09:40 | 30.10208 | 76.78329 | 38687 ft | 446 kts | 183° |
| 2026-04-28 09:40 | 30.03984 | 76.78508 | 38681 ft | 446 kts | 183° |
| 2026-04-28 09:41 | 29.97607 | 76.78687 | 38661 ft | 446 kts | 183° |
| 2026-04-28 09:41 | 29.91377 | 76.78861 | 38664 ft | 447 kts | 183° |
| 2026-04-28 09:42 | 29.85084 | 76.79041 | 38651 ft | 446 kts | 183° |
| 2026-04-28 09:42 | 29.78796 | 76.79218 | 38646 ft | 446 kts | 183° |
| 2026-04-28 09:43 | 29.72227 | 76.79404 | 38650 ft | 447 kts | 183° |
| 2026-04-28 09:43 | 29.65817 | 76.79591 | 38652 ft | 448 kts | 183° |
| 2026-04-28 09:44 | 29.59396 | 76.79775 | 38647 ft | 449 kts | 183° |
| 2026-04-28 09:44 | 29.53030 | 76.79960 | 38643 ft | 449 kts | 183° |
| 2026-04-28 09:45 | 29.46655 | 76.80141 | 38638 ft | 448 kts | 183° |
| 2026-04-28 09:45 | 29.39998 | 76.80333 | 38637 ft | 449 kts | 183° |
| 2026-04-28 09:46 | 29.33217 | 76.80524 | 38635 ft | 450 kts | 183° |
| 2026-04-28 09:46 | 29.26469 | 76.80717 | 38630 ft | 450 kts | 183° |
| 2026-04-28 09:47 | 29.19739 | 76.80907 | 38631 ft | 451 kts | 183° |
| 2026-04-28 09:47 | 29.12756 | 76.81107 | 38632 ft | 451 kts | 183° |
| 2026-04-28 09:48 | 29.06262 | 76.81289 | 38624 ft | 451 kts | 183° |
| 2026-04-28 09:48 | 28.99412 | 76.81484 | 38621 ft | 451 kts | 183° |
| 2026-04-28 09:49 | 28.92846 | 76.81671 | 38621 ft | 451 kts | 183° |
| 2026-04-28 09:49 | 28.86327 | 76.81852 | 38620 ft | 453 kts | 183° |
| 2026-04-28 09:50 | 28.80037 | 76.81954 | 38617 ft | 452 kts | 185° |
| 2026-04-28 09:50 | 28.73565 | 76.81860 | 38623 ft | 451 kts | 185° |
| 2026-04-28 09:51 | 28.67147 | 76.81763 | 38624 ft | 451 kts | 185° |
| 2026-04-28 09:51 | 28.60817 | 76.81667 | 38627 ft | 452 kts | 185° |
| 2026-04-28 09:52 | 28.54449 | 76.81571 | 38627 ft | 453 kts | 185° |
| 2026-04-28 09:52 | 28.48164 | 76.81477 | 38630 ft | 452 kts | 185° |
| 2026-04-28 09:53 | 28.41765 | 76.81382 | 38626 ft | 453 kts | 186° |
| 2026-04-28 09:53 | 28.35461 | 76.81289 | 38628 ft | 453 kts | 186° |
| 2026-04-28 09:54 | 28.29134 | 76.81192 | 38622 ft | 453 kts | 185° |
| 2026-04-28 09:54 | 28.22677 | 76.81095 | 38616 ft | 453 kts | 185° |
| 2026-04-28 09:55 | 28.16322 | 76.81000 | 38614 ft | 454 kts | 185° |
| 2026-04-28 09:55 | 28.09926 | 76.80904 | 38619 ft | 453 kts | 185° |
| 2026-04-28 09:56 | 28.03594 | 76.80812 | 38622 ft | 454 kts | 186° |
| 2026-04-28 09:56 | 27.97147 | 76.80715 | 38619 ft | 455 kts | 186° |
| 2026-04-28 09:57 | 27.90756 | 76.80621 | 38626 ft | 455 kts | 186° |
| 2026-04-28 09:57 | 27.84423 | 76.80528 | 38621 ft | 456 kts | 186° |
| 2026-04-28 09:58 | 27.78054 | 76.80437 | 38619 ft | 456 kts | 186° |
| 2026-04-28 09:58 | 27.71701 | 76.80344 | 38625 ft | 456 kts | 186° |
| 2026-04-28 09:59 | 27.65342 | 76.80250 | 38621 ft | 456 kts | 186° |
| 2026-04-28 09:59 | 27.58961 | 76.80153 | 38620 ft | 457 kts | 186° |
| 2026-04-28 10:00 | 27.52607 | 76.80059 | 38621 ft | 458 kts | 186° |
| 2026-04-28 10:00 | 27.46221 | 76.79964 | 38624 ft | 458 kts | 186° |
| 2026-04-28 10:01 | 27.39796 | 76.79975 | 38624 ft | 461 kts | 182° |
| 2026-04-28 10:01 | 27.33370 | 76.80263 | 38623 ft | 460 kts | 182° |
| 2026-04-28 10:02 | 27.26950 | 76.80557 | 38621 ft | 461 kts | 182° |
| 2026-04-28 10:02 | 27.20524 | 76.80846 | 38632 ft | 461 kts | 182° |
| 2026-04-28 10:03 | 27.14065 | 76.81136 | 38629 ft | 462 kts | 183° |
| 2026-04-28 10:03 | 27.07571 | 76.81422 | 38625 ft | 462 kts | 183° |
| 2026-04-28 10:04 | 27.01086 | 76.81710 | 38622 ft | 461 kts | 182° |
| 2026-04-28 10:04 | 26.94657 | 76.81994 | 38625 ft | 461 kts | 183° |
| 2026-04-28 10:05 | 26.88202 | 76.82281 | 38623 ft | 462 kts | 182° |
| 2026-04-28 10:05 | 26.81522 | 76.82578 | 38628 ft | 463 kts | 182° |
| 2026-04-28 10:06 | 26.74163 | 76.82905 | 38634 ft | 463 kts | 183° |
| 2026-04-28 10:06 | 26.66783 | 76.83231 | 38641 ft | 463 kts | 182° |
| 2026-04-28 10:07 | 26.59792 | 76.83540 | 38641 ft | 463 kts | 183° |
| 2026-04-28 10:07 | 26.53184 | 76.83830 | 38640 ft | 463 kts | 183° |
| 2026-04-28 10:08 | 26.46193 | 76.84138 | 38647 ft | 464 kts | 183° |
| 2026-04-28 10:08 | 26.39437 | 76.84435 | 38656 ft | 464 kts | 183° |
| 2026-04-28 10:09 | 26.32636 | 76.84733 | 38661 ft | 464 kts | 183° |
| 2026-04-28 10:09 | 26.26065 | 76.85020 | 38663 ft | 464 kts | 183° |
| 2026-04-28 10:10 | 26.19580 | 76.85304 | 38663 ft | 464 kts | 183° |
| 2026-04-28 10:10 | 26.12706 | 76.85605 | 38649 ft | 464 kts | 183° |
| 2026-04-28 10:11 | 26.05744 | 76.85910 | 38644 ft | 464 kts | 183° |
| 2026-04-28 10:11 | 25.98787 | 76.86213 | 38641 ft | 464 kts | 183° |
| 2026-04-28 10:12 | 25.91926 | 76.86509 | 38646 ft | 466 kts | 183° |
| 2026-04-28 10:12 | 25.85179 | 76.86803 | 38657 ft | 466 kts | 183° |
| 2026-04-28 10:13 | 25.78479 | 76.87097 | 38670 ft | 465 kts | 183° |
| 2026-04-28 10:13 | 25.71637 | 76.87395 | 38683 ft | 465 kts | 183° |
| 2026-04-28 10:14 | 25.64768 | 76.87693 | 38692 ft | 465 kts | 183° |
| 2026-04-28 10:14 | 25.57948 | 76.87988 | 38699 ft | 465 kts | 183° |
| 2026-04-28 10:15 | 25.51161 | 76.88284 | 38694 ft | 465 kts | 183° |
| 2026-04-28 10:15 | 25.44455 | 76.88573 | 38700 ft | 465 kts | 183° |
| 2026-04-28 10:16 | 25.37745 | 76.88863 | 38690 ft | 465 kts | 183° |
| 2026-04-28 10:16 | 25.30890 | 76.89156 | 38707 ft | 467 kts | 183° |
| 2026-04-28 10:17 | 25.24055 | 76.89450 | 38704 ft | 466 kts | 182° |
| 2026-04-28 10:17 | 25.17036 | 76.89754 | 38706 ft | 465 kts | 182° |
| 2026-04-28 10:18 | 25.10220 | 76.90047 | 38706 ft | 466 kts | 182° |
| 2026-04-28 10:18 | 25.03193 | 76.90348 | 38713 ft | 466 kts | 182° |
| 2026-04-28 10:19 | 24.96382 | 76.90645 | 38701 ft | 465 kts | 183° |
| 2026-04-28 10:19 | 24.89457 | 76.90949 | 38714 ft | 465 kts | 182° |
| 2026-04-28 10:20 | 24.82906 | 76.91239 | 38703 ft | 466 kts | 182° |
| 2026-04-28 10:20 | 24.76079 | 76.91538 | 38705 ft | 466 kts | 182° |
| 2026-04-28 10:21 | 24.69170 | 76.91840 | 38722 ft | 467 kts | 182° |
| 2026-04-28 10:21 | 24.62333 | 76.92141 | 38742 ft | 465 kts | 182° |
| 2026-04-28 10:22 | 24.55419 | 76.92443 | 38742 ft | 464 kts | 182° |
| 2026-04-28 10:22 | 24.48730 | 76.92735 | 38752 ft | 465 kts | 182° |
| 2026-04-28 10:23 | 24.41955 | 76.93031 | 38753 ft | 465 kts | 182° |
| 2026-04-28 10:23 | 24.35052 | 76.93333 | 38752 ft | 464 kts | 182° |
| 2026-04-28 10:24 | 24.28300 | 76.93630 | 38753 ft | 464 kts | 182° |
| 2026-04-28 10:24 | 24.21481 | 76.93928 | 38755 ft | 465 kts | 182° |
| 2026-04-28 10:25 | 24.14429 | 76.94236 | 38755 ft | 466 kts | 182° |
| 2026-04-28 10:25 | 24.07458 | 76.94541 | 38751 ft | 465 kts | 182° |
| 2026-04-28 10:26 | 24.00431 | 76.94848 | 38758 ft | 465 kts | 182° |
| 2026-04-28 10:26 | 23.93714 | 76.95139 | 38767 ft | 464 kts | 182° |
| 2026-04-28 10:27 | 23.86713 | 76.95443 | 38774 ft | 464 kts | 182° |
| 2026-04-28 10:27 | 23.79650 | 76.95750 | 38777 ft | 464 kts | 182° |
| 2026-04-28 10:28 | 23.72408 | 76.96066 | 38780 ft | 463 kts | 182° |
| 2026-04-28 10:29 | 23.61669 | 76.96532 | 38780 ft | 463 kts | 182° |
| 2026-04-28 10:29 | 23.54539 | 76.96841 | 38776 ft | 463 kts | 182° |
| 2026-04-28 10:30 | 23.47246 | 76.97156 | 38781 ft | 462 kts | 182° |
| 2026-04-28 10:30 | 23.40048 | 76.97464 | 38783 ft | 462 kts | 182° |
| 2026-04-28 10:31 | 23.32675 | 76.97781 | 38783 ft | 462 kts | 182° |
| 2026-04-28 10:31 | 23.25377 | 76.98097 | 38781 ft | 462 kts | 182° |
| 2026-04-28 10:32 | 23.18026 | 76.98468 | 38787 ft | 463 kts | 179° |
| 2026-04-28 10:32 | 23.10514 | 76.99737 | 38791 ft | 467 kts | 171° |
| 2026-04-28 10:33 | 23.03338 | 77.01599 | 38796 ft | 469 kts | 170° |
| 2026-04-28 10:33 | 22.95993 | 77.03511 | 38790 ft | 468 kts | 170° |
| 2026-04-28 10:34 | 22.89328 | 77.05231 | 38788 ft | 468 kts | 170° |
| 2026-04-28 10:34 | 22.83016 | 77.06852 | 38784 ft | 466 kts | 170° |
| 2026-04-28 10:35 | 22.76685 | 77.08474 | 38776 ft | 466 kts | 170° |
| 2026-04-28 10:35 | 22.70348 | 77.10100 | 38765 ft | 466 kts | 171° |
| 2026-04-28 10:36 | 22.64053 | 77.11713 | 38753 ft | 466 kts | 171° |
| 2026-04-28 10:36 | 22.57656 | 77.13350 | 38740 ft | 466 kts | 171° |
| 2026-04-28 10:37 | 22.51333 | 77.14969 | 38740 ft | 465 kts | 170° |
| 2026-04-28 10:37 | 22.45018 | 77.16584 | 38739 ft | 465 kts | 170° |
| 2026-04-28 10:38 | 22.38477 | 77.18256 | 38738 ft | 465 kts | 170° |
| 2026-04-28 10:38 | 22.31702 | 77.19997 | 38747 ft | 465 kts | 170° |
| 2026-04-28 10:39 | 22.24815 | 77.21774 | 38752 ft | 465 kts | 170° |
| 2026-04-28 10:39 | 22.17880 | 77.23560 | 38771 ft | 464 kts | 170° |
| 2026-04-28 10:40 | 22.10939 | 77.25346 | 38793 ft | 464 kts | 170° |
| 2026-04-28 10:40 | 22.04310 | 77.27052 | 38805 ft | 464 kts | 170° |
| 2026-04-28 10:41 | 21.97700 | 77.28752 | 38819 ft | 463 kts | 171° |
| 2026-04-28 10:41 | 21.91370 | 77.30377 | 38814 ft | 464 kts | 170° |
| 2026-04-28 10:42 | 21.84989 | 77.32011 | 38800 ft | 463 kts | 171° |
| 2026-04-28 10:42 | 21.78680 | 77.33627 | 38786 ft | 463 kts | 170° |
| 2026-04-28 10:43 | 21.72171 | 77.35297 | 38777 ft | 463 kts | 171° |
| 2026-04-28 10:43 | 21.65495 | 77.37003 | 38791 ft | 463 kts | 171° |
| 2026-04-28 10:44 | 21.58639 | 77.38195 | 38812 ft | 458 kts | 179° |
| 2026-04-28 10:44 | 21.51852 | 77.38519 | 38838 ft | 456 kts | 183° |
| 2026-04-28 10:45 | 21.45252 | 77.38707 | 38846 ft | 456 kts | 183° |
| 2026-04-28 10:45 | 21.38685 | 77.38904 | 38831 ft | 455 kts | 183° |
| 2026-04-28 10:46 | 21.32301 | 77.39102 | 38809 ft | 455 kts | 183° |
| 2026-04-28 10:46 | 21.25821 | 77.39305 | 38786 ft | 455 kts | 183° |
| 2026-04-28 10:47 | 21.19438 | 77.39506 | 38766 ft | 455 kts | 183° |
| 2026-04-28 10:47 | 21.13073 | 77.39707 | 38750 ft | 454 kts | 183° |
| 2026-04-28 10:48 | 21.06661 | 77.39909 | 38738 ft | 454 kts | 183° |
| 2026-04-28 10:48 | 21.00000 | 77.40117 | 38728 ft | 454 kts | 183° |
| 2026-04-28 10:49 | 20.93569 | 77.40318 | 38726 ft | 453 kts | 183° |
| 2026-04-28 10:49 | 20.87054 | 77.40524 | 38725 ft | 453 kts | 183° |
| 2026-04-28 10:50 | 20.80134 | 77.40743 | 38727 ft | 453 kts | 183° |
| 2026-04-28 10:50 | 20.73212 | 77.40961 | 38728 ft | 453 kts | 183° |
| 2026-04-28 10:51 | 20.66217 | 77.41181 | 38736 ft | 454 kts | 183° |
| 2026-04-28 10:51 | 20.59123 | 77.41405 | 38744 ft | 454 kts | 183° |
| 2026-04-28 10:52 | 20.52227 | 77.41621 | 38750 ft | 454 kts | 183° |
| 2026-04-28 10:52 | 20.45009 | 77.41858 | 38756 ft | 453 kts | 183° |
| 2026-04-28 10:53 | 20.38026 | 77.42091 | 38763 ft | 453 kts | 183° |
| 2026-04-28 10:53 | 20.30989 | 77.42323 | 38766 ft | 453 kts | 183° |
| 2026-04-28 10:54 | 20.23949 | 77.42560 | 38770 ft | 454 kts | 183° |
| 2026-04-28 10:54 | 20.16880 | 77.42797 | 38778 ft | 454 kts | 183° |
| 2026-04-28 10:55 | 20.09562 | 77.43040 | 38778 ft | 454 kts | 183° |
| 2026-04-28 10:55 | 20.02301 | 77.43282 | 38775 ft | 453 kts | 183° |
| 2026-04-28 10:56 | 19.95084 | 77.43523 | 38777 ft | 453 kts | 183° |
| 2026-04-28 10:56 | 19.88182 | 77.43752 | 38788 ft | 453 kts | 183° |
| 2026-04-28 10:57 | 19.81101 | 77.43990 | 38787 ft | 453 kts | 183° |
| 2026-04-28 10:57 | 19.74210 | 77.44218 | 38794 ft | 453 kts | 183° |
| 2026-04-28 10:58 | 19.67531 | 77.44442 | 38798 ft | 452 kts | 183° |
| 2026-04-28 10:58 | 19.60542 | 77.44674 | 38788 ft | 452 kts | 183° |
| 2026-04-28 10:59 | 19.53787 | 77.44898 | 38789 ft | 452 kts | 183° |
| 2026-04-28 10:59 | 19.47385 | 77.45110 | 38780 ft | 451 kts | 184° |
| 2026-04-28 11:00 | 19.40738 | 77.45330 | 38780 ft | 451 kts | 183° |
| 2026-04-28 11:00 | 19.34451 | 77.45539 | 38775 ft | 451 kts | 184° |
| 2026-04-28 11:01 | 19.28183 | 77.45745 | 38772 ft | 451 kts | 183° |
| 2026-04-28 11:01 | 19.21877 | 77.45956 | 38772 ft | 451 kts | 184° |
| 2026-04-28 11:02 | 19.15519 | 77.46167 | 38772 ft | 450 kts | 184° |
| 2026-04-28 11:02 | 19.09212 | 77.46377 | 38768 ft | 449 kts | 184° |
| 2026-04-28 11:03 | 19.02693 | 77.46593 | 38768 ft | 450 kts | 184° |
| 2026-04-28 11:03 | 18.96402 | 77.46796 | 38759 ft | 450 kts | 184° |
| 2026-04-28 11:04 | 18.90042 | 77.46995 | 38762 ft | 450 kts | 184° |
| 2026-04-28 11:04 | 18.83782 | 77.47196 | 38763 ft | 449 kts | 184° |
| 2026-04-28 11:05 | 18.77518 | 77.47398 | 38765 ft | 447 kts | 184° |
| 2026-04-28 11:05 | 18.71183 | 77.47602 | 38528 ft | 445 kts | 184° |
| 2026-04-28 11:05 | 18.68059 | 77.47702 | 37592 ft | 452 kts | 184° |
| 2026-04-28 11:06 | 18.64802 | 77.47803 | 36493 ft | 459 kts | 184° |
| 2026-04-28 11:06 | 18.61728 | 77.47900 | 35681 ft | 460 kts | 184° |
| 2026-04-28 11:06 | 18.58463 | 77.48005 | 34913 ft | 459 kts | 185° |
| 2026-04-28 11:06 | 18.55292 | 77.48108 | 34137 ft | 459 kts | 185° |
| 2026-04-28 11:07 | 18.52081 | 77.48212 | 33285 ft | 460 kts | 185° |
| 2026-04-28 11:07 | 18.48829 | 77.48317 | 32428 ft | 461 kts | 185° |
| 2026-04-28 11:07 | 18.45556 | 77.48419 | 31668 ft | 460 kts | 185° |
| 2026-04-28 11:07 | 18.42357 | 77.48520 | 31098 ft | 456 kts | 185° |
| 2026-04-28 11:08 | 18.39088 | 77.48628 | 30560 ft | 451 kts | 185° |
| 2026-04-28 11:08 | 18.35933 | 77.48731 | 30092 ft | 444 kts | 185° |
| 2026-04-28 11:08 | 18.32827 | 77.48830 | 29620 ft | 439 kts | 185° |
| 2026-04-28 11:08 | 18.29760 | 77.48930 | 29163 ft | 433 kts | 185° |
| 2026-04-28 11:09 | 18.26759 | 77.49026 | 28721 ft | 427 kts | 185° |
| 2026-04-28 11:09 | 18.23783 | 77.49122 | 28289 ft | 422 kts | 185° |
| 2026-04-28 11:09 | 18.20868 | 77.49213 | 27840 ft | 418 kts | 185° |
| 2026-04-28 11:09 | 18.17874 | 77.49308 | 27389 ft | 413 kts | 185° |
| 2026-04-28 11:10 | 18.15033 | 77.49397 | 26953 ft | 410 kts | 185° |
| 2026-04-28 11:10 | 18.12082 | 77.49491 | 26502 ft | 406 kts | 184° |
| 2026-04-28 11:10 | 18.09235 | 77.49583 | 26072 ft | 402 kts | 184° |
| 2026-04-28 11:10 | 18.06391 | 77.49674 | 25628 ft | 399 kts | 184° |
| 2026-04-28 11:11 | 18.03628 | 77.49764 | 25211 ft | 395 kts | 184° |
| 2026-04-28 11:11 | 18.00890 | 77.49852 | 24787 ft | 392 kts | 184° |
| 2026-04-28 11:11 | 17.98129 | 77.49940 | 24371 ft | 388 kts | 184° |
| 2026-04-28 11:11 | 17.95417 | 77.50028 | 23928 ft | 386 kts | 182° |
| 2026-04-28 11:12 | 17.92711 | 77.50312 | 23495 ft | 387 kts | 175° |
| 2026-04-28 11:12 | 17.90079 | 77.50944 | 23068 ft | 388 kts | 168° |
| 2026-04-28 11:12 | 17.87501 | 77.51842 | 22647 ft | 386 kts | 165° |
| 2026-04-28 11:12 | 17.84979 | 77.52782 | 22259 ft | 383 kts | 165° |
| 2026-04-28 11:13 | 17.82463 | 77.53732 | 21859 ft | 379 kts | 164° |
| 2026-04-28 11:13 | 17.80001 | 77.54658 | 21458 ft | 376 kts | 164° |
| 2026-04-28 11:13 | 17.77546 | 77.55577 | 21051 ft | 373 kts | 164° |
| 2026-04-28 11:13 | 17.75044 | 77.56511 | 20637 ft | 370 kts | 164° |
| 2026-04-28 11:14 | 17.72625 | 77.57413 | 20234 ft | 368 kts | 164° |
| 2026-04-28 11:14 | 17.70200 | 77.58314 | 19816 ft | 365 kts | 163° |
| 2026-04-28 11:14 | 17.67803 | 77.59205 | 19419 ft | 363 kts | 163° |
| 2026-04-28 11:14 | 17.65435 | 77.60085 | 19023 ft | 361 kts | 163° |
| 2026-04-28 11:15 | 17.63044 | 77.60974 | 18609 ft | 359 kts | 163° |
| 2026-04-28 11:15 | 17.60690 | 77.61848 | 18206 ft | 357 kts | 163° |
| 2026-04-28 11:15 | 17.58367 | 77.62708 | 17823 ft | 355 kts | 162° |
| 2026-04-28 11:15 | 17.56042 | 77.63572 | 17446 ft | 352 kts | 162° |
| 2026-04-28 11:16 | 17.53709 | 77.64439 | 17068 ft | 350 kts | 162° |
| 2026-04-28 11:16 | 17.51376 | 77.65305 | 16681 ft | 348 kts | 162° |
| 2026-04-28 11:16 | 17.48879 | 77.66245 | 16284 ft | 345 kts | 161° |
| 2026-04-28 11:16 | 17.46521 | 77.67134 | 15884 ft | 343 kts | 161° |
| 2026-04-28 11:17 | 17.44225 | 77.67992 | 15506 ft | 341 kts | 161° |
| 2026-04-28 11:17 | 17.41852 | 77.68874 | 15113 ft | 339 kts | 161° |
| 2026-04-28 11:17 | 17.39572 | 77.69721 | 14730 ft | 338 kts | 161° |
| 2026-04-28 11:17 | 17.37344 | 77.70547 | 14337 ft | 337 kts | 161° |
| 2026-04-28 11:18 | 17.35080 | 77.71385 | 13934 ft | 336 kts | 161° |
| 2026-04-28 11:18 | 17.32755 | 77.72244 | 13566 ft | 334 kts | 160° |
| 2026-04-28 11:18 | 17.30544 | 77.73061 | 13239 ft | 330 kts | 160° |
| 2026-04-28 11:18 | 17.28335 | 77.74000 | 12861 ft | 328 kts | 147° |
| 2026-04-28 11:19 | 17.26712 | 77.75710 | 12491 ft | 322 kts | 117° |
| 2026-04-28 11:19 | 17.26045 | 77.77960 | 12105 ft | 316 kts | 93° |
| 2026-04-28 11:19 | 17.25906 | 77.80302 | 11855 ft | 321 kts | 91° |
| 2026-04-28 11:19 | 17.25764 | 77.82758 | 11838 ft | 325 kts | 91° |
| 2026-04-28 11:20 | 17.25607 | 77.85163 | 11838 ft | 326 kts | 92° |
| 2026-04-28 11:20 | 17.25440 | 77.87544 | 11839 ft | 326 kts | 92° |
| 2026-04-28 11:20 | 17.25264 | 77.89921 | 11836 ft | 326 kts | 92° |
| 2026-04-28 11:20 | 17.25141 | 77.91524 | 11827 ft | 326 kts | 92° |
| 2026-04-28 11:21 | 17.24902 | 77.94610 | 11662 ft | 311 kts | 92° |
| 2026-04-28 11:21 | 17.24729 | 77.96851 | 11354 ft | 307 kts | 92° |
| 2026-04-28 11:21 | 17.24558 | 77.99066 | 10979 ft | 305 kts | 92° |
| 2026-04-28 11:21 | 17.24386 | 78.01273 | 10567 ft | 305 kts | 92° |
| 2026-04-28 11:22 | 17.24213 | 78.03487 | 10170 ft | 304 kts | 92° |
| 2026-04-28 11:22 | 17.24037 | 78.05734 | 9778 ft | 302 kts | 92° |
| 2026-04-28 11:22 | 17.23863 | 78.07942 | 9372 ft | 301 kts | 92° |
| 2026-04-28 11:22 | 17.23691 | 78.10139 | 8986 ft | 300 kts | 92° |
| 2026-04-28 11:23 | 17.23520 | 78.12322 | 8627 ft | 298 kts | 93° |
| 2026-04-28 11:23 | 17.23347 | 78.14532 | 8245 ft | 296 kts | 93° |
| 2026-04-28 11:23 | 17.23175 | 78.16725 | 7861 ft | 294 kts | 93° |
| 2026-04-28 11:23 | 17.23004 | 78.18843 | 7550 ft | 290 kts | 93° |
| 2026-04-28 11:24 | 17.22837 | 78.20946 | 7272 ft | 284 kts | 93° |
| 2026-04-28 11:24 | 17.22669 | 78.23047 | 6987 ft | 278 kts | 93° |
| 2026-04-28 11:24 | 17.22441 | 78.25037 | 6724 ft | 274 kts | 104° |
| 2026-04-28 11:24 | 17.21471 | 78.26701 | 6503 ft | 268 kts | 141° |
| 2026-04-28 11:25 | 17.19811 | 78.27464 | 6297 ft | 259 kts | 178° |
| 2026-04-28 11:25 | 17.18091 | 78.27083 | 6137 ft | 245 kts | 212° |
| 2026-04-28 11:25 | 17.16848 | 78.25936 | 6066 ft | 229 kts | 238° |
| 2026-04-28 11:25 | 17.16230 | 78.24444 | 5849 ft | 223 kts | 263° |
| 2026-04-28 11:26 | 17.16238 | 78.22846 | 5639 ft | 216 kts | 278° |
| 2026-04-28 11:26 | 17.16402 | 78.21312 | 5442 ft | 212 kts | 278° |
| 2026-04-28 11:26 | 17.16552 | 78.19790 | 5257 ft | 207 kts | 277° |
| 2026-04-28 11:26 | 17.16679 | 78.18318 | 5055 ft | 203 kts | 277° |
| 2026-04-28 11:27 | 17.16795 | 78.16871 | 4911 ft | 193 kts | 277° |
| 2026-04-28 11:27 | 17.16970 | 78.15483 | 4688 ft | 186 kts | 289° |
| 2026-04-28 11:27 | 17.17575 | 78.14331 | 4444 ft | 178 kts | 313° |
| 2026-04-28 11:27 | 17.18511 | 78.13559 | 4281 ft | 164 kts | 336° |
| 2026-04-28 11:28 | 17.19554 | 78.13218 | 4359 ft | 151 kts | 354° |
| 2026-04-28 11:28 | 17.20609 | 78.13252 | 4381 ft | 150 kts | 12° |
| 2026-04-28 11:28 | 17.21589 | 78.13645 | 4388 ft | 151 kts | 31° |
| 2026-04-28 11:28 | 17.22399 | 78.14359 | 4391 ft | 151 kts | 49° |
| 2026-04-28 11:29 | 17.22940 | 78.15301 | 4389 ft | 152 kts | 68° |
| 2026-04-28 11:29 | 17.23151 | 78.16383 | 4388 ft | 152 kts | 86° |
| 2026-04-28 11:29 | 17.23105 | 78.17486 | 4381 ft | 152 kts | 91° |
| 2026-04-28 11:29 | 17.23014 | 78.18605 | 4384 ft | 151 kts | 91° |
| 2026-04-28 11:30 | 17.22924 | 78.19708 | 4383 ft | 152 kts | 91° |
| 2026-04-28 11:30 | 17.22754 | 78.21905 | 4384 ft | 151 kts | 91° |
| 2026-04-28 11:30 | 17.22673 | 78.23017 | 4380 ft | 151 kts | 91° |
| 2026-04-28 11:31 | 17.22591 | 78.24124 | 4385 ft | 151 kts | 91° |
| 2026-04-28 11:31 | 17.22523 | 78.25236 | 4319 ft | 152 kts | 91° |
| 2026-04-28 11:31 | 17.22487 | 78.26336 | 4221 ft | 151 kts | 86° |
| 2026-04-28 11:31 | 17.22498 | 78.27434 | 4087 ft | 151 kts | 86° |
| 2026-04-28 11:32 | 17.22545 | 78.28553 | 3947 ft | 150 kts | 83° |
| 2026-04-28 11:32 | 17.22616 | 78.29654 | 3824 ft | 150 kts | 82° |
| 2026-04-28 11:32 | 17.22694 | 78.30743 | 3717 ft | 150 kts | 83° |
| 2026-04-28 11:32 | 17.22750 | 78.31835 | 3593 ft | 150 kts | 87° |
| 2026-04-28 11:33 | 17.22760 | 78.32931 | 3399 ft | 150 kts | 90° |
| 2026-04-28 11:33 | 17.22743 | 78.34023 | 3219 ft | 149 kts | 88° |
| 2026-04-28 11:33 | 17.22737 | 78.35113 | 3039 ft | 149 kts | 84° |
| 2026-04-28 11:33 | 17.22731 | 78.36195 | 2838 ft | 150 kts | 80° |
| 2026-04-28 11:34 | 17.22746 | 78.37295 | 2595 ft | 149 kts | 78° |
| 2026-04-28 11:34 | 17.22821 | 78.38371 | 2433 ft | 150 kts | 81° |
| 2026-04-28 11:34 | 17.22838 | 78.39465 | 2337 ft | 152 kts | 85° |
| 2026-04-28 11:34 | 17.22821 | 78.40570 | 2139 ft | 152 kts | 82° |
| 2026-04-28 11:35 | 17.22846 | 78.41688 | 2025 ft | 154 kts | 79° |
| 2026-04-28 11:35 | 17.22872 | 78.42788 | 1992 ft | 142 kts | 89° |
| 2026-04-28 11:35 | 17.22899 | 78.43657 | 2022 ft | 93 kts | 90° |
| 2026-04-28 11:35 | 17.22906 | 78.44158 | 2035 ft | 44 kts | 87° |
| 2026-04-28 11:36 | 17.22942 | 78.44290 | 2036 ft | 0 kts | 49° |
| 2026-04-28 11:36 | 17.22943 | 78.44292 | 2037 ft | 1 kts | 49° |
| 2026-04-28 11:36 | 17.22971 | 78.44308 | 2038 ft | 7 kts | 8° |
| 2026-04-28 11:36 | 17.23026 | 78.44308 | 2039 ft | 7 kts | 359° |
| 2026-04-28 11:37 | 17.23078 | 78.44305 | 2039 ft | 5 kts | 326° |
| 2026-04-28 11:37 | 17.23108 | 78.44263 | 2039 ft | 7 kts | 302° |
| 2026-04-28 11:37 | 17.23118 | 78.44212 | 2038 ft | 7 kts | 270° |
| 2026-04-28 11:37 | 17.23117 | 78.44158 | 2038 ft | 7 kts | 268° |
| 2026-04-28 11:38 | 17.23116 | 78.44090 | 2036 ft | 10 kts | 268° |
| 2026-04-28 11:38 | 17.23114 | 78.44003 | 2033 ft | 12 kts | 268° |
| 2026-04-28 11:38 | 17.23111 | 78.43902 | 2030 ft | 15 kts | 269° |
| 2026-04-28 11:38 | 17.23115 | 78.43784 | 2025 ft | 17 kts | 284° |
| 2026-04-28 11:39 | 17.23204 | 78.43708 | 2022 ft | 17 kts | 343° |
| 2026-04-28 11:39 | 17.23328 | 78.43690 | 2019 ft | 18 kts | 356° |
| 2026-04-28 11:39 | 17.23460 | 78.43671 | 2014 ft | 20 kts | 353° |
| 2026-04-28 11:39 | 17.23596 | 78.43632 | 2009 ft | 21 kts | 328° |
| 2026-04-28 11:40 | 17.23643 | 78.43493 | 2003 ft | 21 kts | 271° |
| 2026-04-28 11:40 | 17.23638 | 78.43336 | 2001 ft | 21 kts | 268° |
| 2026-04-28 11:40 | 17.23640 | 78.43182 | 1998 ft | 21 kts | 272° |
| 2026-04-28 11:40 | 17.23608 | 78.43133 | 1998 ft | 0 kts | 174° |
| 2026-04-28 11:41 | 17.23607 | 78.43132 | 1998 ft | 0 kts | 200° |
| 2026-04-28 11:42 | 17.23605 | 78.43130 | 1998 ft | 0 kts | 231° |
| 2026-04-28 11:42 | 17.23603 | 78.43127 | 1998 ft | 0 kts | 232° |
| 2026-04-28 11:42 | 17.23602 | 78.43126 | 1998 ft | 0 kts | 231° |
| 2026-04-28 11:43 | 17.23601 | 78.43124 | 1998 ft | 0 kts | 224° |
| 2026-04-28 11:43 | 17.23599 | 78.43124 | 1998 ft | 1 kts | 218° |
| 2026-04-28 11:43 | 17.23598 | 78.43123 | 1998 ft | 0 kts | 205° |
| 2026-04-28 11:43 | 17.23596 | 78.43122 | 1998 ft | 0 kts | 198° |
| 2026-04-28 11:44 | 17.23592 | 78.43122 | 1998 ft | 0 kts | 181° |
| 2026-04-28 11:44 | 17.23585 | 78.43122 | 1999 ft | 1 kts | 179° |
| 2026-04-28 11:44 | 17.23576 | 78.43122 | 1999 ft | 0 kts | 179° |
| 2026-04-28 11:44 | 17.23572 | 78.43122 | 1999 ft | 0 kts | 180° |
| 2026-04-28 11:45 | 17.23571 | 78.43122 | 1999 ft | 0 kts | 180° |